Terminal Aerodrome Forecast
Issued by NWS

Home | Current Version | Previous Version | Graphics & Text | Print | Product List | Glossary On
Versions: 1 2 3 4 5 6 7 8 9 10 11 12 13 14
000
FTUS43 KFGF 252300
TAFBJI
TAF
KBJI 252336Z 2600/2624 32017G25KT P6SM BKN015
     FM260600 31013KT P6SM BKN025
     FM261500 34013KT P6SM BKN040=

USA.gov is the U.S. government's official web portal to all federal, state and local government web resources and services.